Time;durP1;ratioP1;P1;durP2;ratioP2;P2;SDS_P1;SDS_P2;PMS_P1;PMS_P2;Temp;Humidity;BMP_temperature;BMP_pressure;BME280_temperature;BME280_humidity;BME280_pressure;Samples;Min_cycle;Max_cycle;Signal;HPM_P1;HPM_P2
2023/06/09 00:01:20;;;;;;;0.65;0.65;;;9.00;99.90;;;;;;4972379;28;20200;-71
2023/06/09 00:03:47;;;;;;;0.57;0.57;;;8.90;99.90;;;;;;4970989;28;20258;-71
2023/06/09 00:06:13;;;;;;;0.70;0.70;;;8.90;99.90;;;;;;4972728;28;20193;-71
2023/06/09 00:08:39;;;;;;;1.33;1.23;;;8.80;99.90;;;;;;4972411;28;20222;-71
2023/06/09 00:11:05;;;;;;;0.60;0.60;;;8.70;99.90;;;;;;4971345;28;20215;-71
2023/06/09 00:13:31;;;;;;;0.55;0.55;;;8.70;99.90;;;;;;4949091;28;20201;-71
2023/06/09 00:15:56;;;;;;;0.95;0.80;;;8.70;99.90;;;;;;4953728;29;20256;-71
2023/06/09 00:18:24;;;;;;;0.60;0.60;;;8.60;99.90;;;;;;4935313;29;20742;-70
2023/06/09 00:20:50;;;;;;;0.60;0.60;;;8.60;99.90;;;;;;4935347;29;20205;-70
2023/06/09 00:23:17;;;;;;;0.70;0.70;;;8.50;99.90;;;;;;4953121;29;20200;-70
2023/06/09 00:25:42;;;;;;;0.60;0.60;;;8.40;99.90;;;;;;4953159;28;20338;-70
2023/06/09 00:28:09;;;;;;;0.60;0.60;;;8.40;99.90;;;;;;4953237;29;20262;-70
2023/06/09 00:30:36;;;;;;;0.60;0.60;;;8.30;99.90;;;;;;4953261;29;20704;-70
2023/06/09 00:33:02;;;;;;;0.70;0.70;;;8.30;99.90;;;;;;4953458;29;20180;-70
2023/06/09 00:35:27;;;;;;;0.60;0.60;;;8.30;99.90;;;;;;4952659;29;20212;-71
2023/06/09 00:37:53;;;;;;;0.60;0.60;;;8.20;99.90;;;;;;4952849;29;20212;-70
2023/06/09 00:40:21;;;;;;;0.60;0.60;;;8.20;99.90;;;;;;4955758;28;20196;-71
2023/06/09 00:42:47;;;;;;;0.70;0.70;;;8.20;99.90;;;;;;4953670;29;20558;-70
2023/06/09 00:45:14;;;;;;;0.60;0.60;;;8.10;99.90;;;;;;4953183;29;20193;-70
2023/06/09 00:47:40;;;;;;;0.60;0.60;;;8.00;99.90;;;;;;4952973;29;20201;-70
2023/06/09 00:50:06;;;;;;;4.00;1.10;;;8.00;99.90;;;;;;4953147;29;20204;-70
2023/06/09 00:52:33;;;;;;;0.60;0.60;;;7.90;99.90;;;;;;4953435;29;20192;-71
2023/06/09 00:54:59;;;;;;;0.60;0.60;;;7.90;99.90;;;;;;4953381;29;20262;-70
2023/06/09 00:57:25;;;;;;;0.60;0.60;;;7.90;99.90;;;;;;4952917;29;20284;-70
2023/06/09 00:59:51;;;;;;;0.60;0.60;;;7.80;99.90;;;;;;4953081;29;20277;-71
2023/06/09 01:02:16;;;;;;;0.60;0.60;;;7.70;99.90;;;;;;4982574;23;20956;-67
2023/06/09 01:04:49;;;;;;;0.65;0.65;;;7.70;99.90;;;;;;5069806;28;20550;-67
2023/06/09 01:07:41;;;;;;;0.65;0.65;;;7.60;99.90;;;;;;5070001;28;20275;-67
2023/06/09 01:10:12;;;;;;;0.60;0.60;;;7.60;99.90;;;;;;5069817;28;20275;-67
2023/06/09 01:13:03;;;;;;;0.70;0.70;;;7.50;99.90;;;;;;5070697;28;20586;-67
2023/06/09 01:15:36;;;;;;;0.60;0.60;;;7.40;99.90;;;;;;5070068;28;20199;-67
2023/06/09 01:18:04;;;;;;;0.60;0.60;;;7.40;99.90;;;;;;5052523;28;20216;-67
2023/06/09 01:20:53;;;;;;;0.65;0.65;;;7.40;99.90;;;;;;5069668;28;20192;-67
2023/06/09 01:23:44;;;;;;;0.65;0.65;;;7.40;99.90;;;;;;5070436;28;20659;-67
2023/06/09 01:26:12;;;;;;;0.60;0.60;;;7.40;99.90;;;;;;5070233;28;20193;-67
2023/06/09 01:28:39;;;;;;;0.60;0.60;;;7.30;99.90;;;;;;5070205;28;20204;-67
2023/06/09 01:31:05;;;;;;;0.70;0.70;;;7.30;99.90;;;;;;5052478;28;20193;-67
2023/06/09 01:33:32;;;;;;;0.60;0.60;;;7.30;99.90;;;;;;5051537;28;20197;-68
2023/06/09 01:35:58;;;;;;;7.00;2.08;;;7.20;99.90;;;;;;5070499;28;20189;-67
2023/06/09 01:38:24;;;;;;;0.60;0.60;;;7.20;99.90;;;;;;5054707;28;20216;-68
2023/06/09 01:40:50;;;;;;;0.70;0.70;;;7.20;99.90;;;;;;5073945;28;20203;-67
2023/06/09 01:43:17;;;;;;;0.68;0.68;;;7.10;99.90;;;;;;5073952;28;20711;-68
2023/06/09 01:45:42;;;;;;;0.70;0.70;;;7.10;99.90;;;;;;5073526;28;20185;-67
2023/06/09 01:48:23;;;;;;;0.70;0.70;;;7.00;99.90;;;;;;5073765;28;20554;-67
2023/06/09 01:51:08;;;;;;;0.70;0.70;;;7.00;99.90;;;;;;5074108;28;20544;-67
2023/06/09 01:53:37;;;;;;;0.60;0.60;;;7.00;99.90;;;;;;5073587;28;20253;-67
2023/06/09 01:56:08;;;;;;;0.68;0.68;;;6.90;99.90;;;;;;5073938;28;20280;-68
2023/06/09 01:58:43;;;;;;;0.70;0.70;;;6.90;99.90;;;;;;5073172;28;20687;-66
2023/06/09 02:01:09;;;;;;;0.70;0.70;;;6.90;99.90;;;;;;5073081;28;20199;-66
2023/06/09 02:03:40;;;;;;;0.70;0.70;;;6.90;99.90;;;;;;5073019;28;20224;-66
2023/06/09 02:06:05;;;;;;;0.80;0.80;;;6.90;99.90;;;;;;5073048;28;20197;-67
2023/06/09 02:08:32;;;;;;;0.70;0.70;;;6.80;99.90;;;;;;5073496;28;20205;-67
2023/06/09 02:10:58;;;;;;;0.70;0.70;;;6.80;99.90;;;;;;5073330;28;20231;-67
2023/06/09 02:13:23;;;;;;;0.60;0.60;;;6.80;99.90;;;;;;5054891;28;20282;-67
2023/06/09 02:15:49;;;;;;;0.70;0.70;;;6.80;99.90;;;;;;5073547;28;20193;-66
2023/06/09 02:18:20;;;;;;;0.60;0.60;;;6.80;99.90;;;;;;5073390;28;20295;-67
2023/06/09 02:20:47;;;;;;;0.70;0.70;;;6.70;99.90;;;;;;5072883;28;20485;-67
2023/06/09 02:23:14;;;;;;;1.45;1.35;;;6.70;99.90;;;;;;5073320;28;20800;-67
2023/06/09 02:25:40;;;;;;;0.70;0.70;;;6.70;99.90;;;;;;5072774;28;20193;-67
2023/06/09 02:28:06;;;;;;;0.60;0.60;;;6.70;99.90;;;;;;5073208;28;20745;-67
2023/06/09 02:30:33;;;;;;;0.80;0.80;;;6.70;99.90;;;;;;5072312;28;20228;-67
2023/06/09 02:33:00;;;;;;;0.70;0.70;;;6.80;99.90;;;;;;5073023;28;20589;-66
2023/06/09 02:35:26;;;;;;;0.70;0.70;;;6.80;99.90;;;;;;5072750;28;20659;-66
2023/06/09 02:37:55;;;;;;;0.70;0.70;;;6.80;99.90;;;;;;5072873;28;20209;-67
2023/06/09 02:40:21;;;;;;;0.70;0.70;;;6.80;99.90;;;;;;5072753;28;20203;-67
2023/06/09 02:42:47;;;;;;;0.60;0.60;;;6.80;99.90;;;;;;5072673;28;20196;-68
2023/06/09 02:45:13;;;;;;;0.70;0.70;;;6.80;99.90;;;;;;5054829;28;20193;-68
2023/06/09 02:47:40;;;;;;;0.88;0.88;;;6.90;99.90;;;;;;5072324;28;20740;-68
2023/06/09 02:50:07;;;;;;;0.70;0.70;;;6.90;99.90;;;;;;5072473;28;20682;-67
2023/06/09 02:52:34;;;;;;;0.70;0.70;;;6.90;99.90;;;;;;5072314;28;20567;-67
2023/06/09 02:55:00;;;;;;;0.60;0.60;;;7.00;99.90;;;;;;5072854;28;20185;-67
2023/06/09 02:57:27;;;;;;;0.70;0.70;;;7.00;99.90;;;;;;5072199;28;20338;-69
2023/06/09 02:59:53;;;;;;;0.70;0.70;;;7.10;99.90;;;;;;5072555;28;20215;-68
2023/06/09 03:02:19;;;;;;;0.70;0.70;;;7.10;99.90;;;;;;5052512;28;20217;-67
2023/06/09 03:04:45;;;;;;;0.60;0.60;;;7.20;99.90;;;;;;5035285;28;20880;-67
2023/06/09 03:07:13;;;;;;;0.70;0.70;;;7.20;99.90;;;;;;5052447;28;20229;-67
2023/06/09 03:09:43;;;;;;;0.63;0.63;;;7.30;99.90;;;;;;5053882;28;20208;-67
2023/06/09 03:12:09;;;;;;;0.60;0.60;;;7.40;99.90;;;;;;5072143;28;20666;-68
2023/06/09 03:14:35;;;;;;;0.70;0.70;;;7.50;99.90;;;;;;5071807;28;20201;-67
2023/06/09 03:17:04;;;;;;;0.70;0.70;;;7.60;99.90;;;;;;5072349;28;20246;-67
2023/06/09 03:19:30;;;;;;;0.60;0.60;;;7.80;99.90;;;;;;5071630;28;20215;-67
2023/06/09 03:21:57;;;;;;;0.60;0.60;;;7.90;99.90;;;;;;5083497;28;20192;-67
2023/06/09 03:24:24;;;;;;;0.60;0.60;;;8.00;99.90;;;;;;5092145;28;20191;-67
2023/06/09 03:26:49;;;;;;;0.70;0.70;;;8.20;99.90;;;;;;5092135;28;20504;-66
2023/06/09 03:29:15;;;;;;;0.55;0.55;;;8.30;99.90;;;;;;5082588;28;20326;-67
2023/06/09 03:31:41;;;;;;;1.10;1.10;;;8.40;99.90;;;;;;5072198;28;20193;-66
2023/06/09 03:34:07;;;;;;;0.70;0.70;;;8.50;99.90;;;;;;5053833;28;20204;-66
2023/06/09 03:36:36;;;;;;;0.60;0.60;;;8.60;99.90;;;;;;5071450;28;20199;-66
2023/06/09 03:39:02;;;;;;;0.60;0.60;;;8.80;99.90;;;;;;5053720;28;20215;-67
2023/06/09 03:41:28;;;;;;;0.60;0.60;;;8.90;99.90;;;;;;5071524;28;20195;-67
2023/06/09 03:43:54;;;;;;;0.60;0.60;;;9.10;99.90;;;;;;5071590;28;20185;-66
2023/06/09 03:46:20;;;;;;;0.70;0.70;;;9.20;99.90;;;;;;5071171;28;20208;-67
2023/06/09 03:48:46;;;;;;;0.60;0.60;;;9.40;99.90;;;;;;5071452;28;20499;-67
2023/06/09 03:51:12;;;;;;;0.70;0.70;;;9.50;99.90;;;;;;5070794;28;20694;-67
2023/06/09 03:53:38;;;;;;;0.90;0.90;;;9.70;99.90;;;;;;5071580;28;20188;-67
2023/06/09 03:56:04;;;;;;;0.60;0.60;;;9.70;99.90;;;;;;5071574;28;20192;-68
2023/06/09 03:58:30;;;;;;;0.60;0.60;;;9.90;99.90;;;;;;5070629;28;20269;-67
2023/06/09 04:00:56;;;;;;;0.60;0.60;;;10.00;99.90;;;;;;5070728;28;20185;-67
2023/06/09 04:03:22;;;;;;;0.60;0.60;;;10.10;99.90;;;;;;5070682;28;20629;-67
2023/06/09 04:05:49;;;;;;;1.05;0.80;;;10.20;99.90;;;;;;5053203;28;20196;-66
2023/06/09 04:08:15;;;;;;;0.60;0.60;;;10.30;99.90;;;;;;5053305;28;20196;-67
2023/06/09 04:10:41;;;;;;;0.60;0.60;;;10.40;99.90;;;;;;5071431;28;20204;-67
2023/06/09 04:13:08;;;;;;;0.60;0.60;;;10.40;99.90;;;;;;5071250;28;20193;-67
2023/06/09 04:15:33;;;;;;;0.60;0.60;;;10.50;99.90;;;;;;5070914;28;20535;-67
2023/06/09 04:18:01;;;;;;;0.60;0.60;;;10.70;99.90;;;;;;5071107;28;20220;-67
2023/06/09 04:20:29;;;;;;;0.60;0.60;;;10.70;99.90;;;;;;5071028;28;20224;-66
2023/06/09 04:22:55;;;;;;;0.63;0.63;;;10.80;99.90;;;;;;5070826;28;20698;-67
2023/06/09 04:25:27;;;;;;;0.50;0.50;;;10.90;99.90;;;;;;5071025;28;20193;-68
2023/06/09 04:27:54;;;;;;;0.60;0.60;;;11.00;99.90;;;;;;5070908;28;20279;-67
2023/06/09 04:30:25;;;;;;;0.57;0.57;;;11.10;99.90;;;;;;5070962;28;20177;-70
2023/06/09 04:32:56;;;;;;;0.60;0.60;;;11.20;99.90;;;;;;5053051;28;20200;-68
2023/06/09 04:35:22;;;;;;;0.68;0.68;;;11.40;99.90;;;;;;5071121;28;20189;-68
2023/06/09 04:37:49;;;;;;;0.57;0.57;;;11.50;99.90;;;;;;5070749;28;20591;-68
2023/06/09 04:40:23;;;;;;;0.60;0.60;;;11.60;99.90;;;;;;5070358;28;20268;-67
2023/06/09 04:42:59;;;;;;;0.70;0.70;;;11.70;99.90;;;;;;5070937;28;20190;-67
2023/06/09 04:45:28;;;;;;;0.50;0.50;;;11.80;99.90;;;;;;5070862;28;20271;-68
2023/06/09 04:48:00;;;;;;;0.52;0.52;;;11.80;99.90;;;;;;5070353;28;20559;-67
2023/06/09 04:50:29;;;;;;;0.47;0.47;;;11.90;99.90;;;;;;5052705;28;20193;-68
2023/06/09 04:52:57;;;;;;;0.50;0.50;;;11.90;99.90;;;;;;5070963;28;20185;-68
2023/06/09 04:55:25;;;;;;;0.50;0.50;;;11.90;99.90;;;;;;5050220;28;20685;-68
2023/06/09 04:57:56;;;;;;;0.63;0.63;;;12.10;99.90;;;;;;5070779;28;20241;-68
2023/06/09 05:00:29;;;;;;;0.60;0.60;;;12.20;99.90;;;;;;5070607;28;20642;-68
2023/06/09 05:02:57;;;;;;;0.50;0.50;;;12.30;99.90;;;;;;5070426;28;20764;-67
2023/06/09 05:05:23;;;;;;;0.68;0.57;;;12.40;99.90;;;;;;5070665;28;20185;-68
2023/06/09 05:07:49;;;;;;;0.50;0.50;;;12.50;99.90;;;;;;5052449;28;20724;-68
2023/06/09 05:10:15;;;;;;;0.50;0.50;;;12.60;99.90;;;;;;5070639;28;20277;-68
2023/06/09 05:12:41;;;;;;;0.50;0.50;;;12.70;99.90;;;;;;5073978;28;20189;-68
2023/06/09 05:15:07;;;;;;;0.50;0.50;;;12.80;99.90;;;;;;5056730;28;20193;-67
2023/06/09 05:17:33;;;;;;;0.50;0.50;;;12.90;99.90;;;;;;5074346;28;20740;-70
2023/06/09 05:20:00;;;;;;;0.50;0.50;;;13.20;99.90;;;;;;5074531;28;20200;-70
2023/06/09 05:22:26;;;;;;;0.50;0.50;;;13.70;99.90;;;;;;5073547;28;20189;-70
2023/06/09 05:24:53;;;;;;;1.42;1.27;;;14.50;99.90;;;;;;5074351;28;20215;-69
2023/06/09 05:27:18;;;;;;;0.80;0.80;;;15.30;99.90;;;;;;5074090;28;20568;-72
2023/06/09 05:29:44;;;;;;;0.55;0.55;;;15.70;99.90;;;;;;5056143;28;20196;-69
2023/06/09 05:32:10;;;;;;;0.35;0.35;;;16.00;99.90;;;;;;5055483;28;20220;-70
2023/06/09 05:34:36;;;;;;;0.57;0.57;;;16.10;99.90;;;;;;5073992;28;20733;-70
2023/06/09 05:37:04;;;;;;;1.20;1.08;;;16.40;99.90;;;;;;5074193;28;20243;-68
2023/06/09 05:39:29;;;;;;;1.02;0.85;;;16.50;99.90;;;;;;5055625;28;20238;-70
2023/06/09 05:41:55;;;;;;;0.35;0.35;;;16.50;99.90;;;;;;5056054;28;20667;-71
2023/06/09 05:44:21;;;;;;;0.30;0.30;;;16.80;99.90;;;;;;5073324;28;20550;-69
2023/06/09 05:46:47;;;;;;;0.30;0.30;;;16.70;99.90;;;;;;5073333;28;20189;-69
2023/06/09 05:49:12;;;;;;;0.30;0.30;;;16.90;99.90;;;;;;5055771;28;20208;-69
2023/06/09 05:51:38;;;;;;;0.30;0.30;;;17.00;99.90;;;;;;5072655;28;20199;-69
2023/06/09 05:54:04;;;;;;;0.40;0.40;;;16.60;99.90;;;;;;5055218;28;20547;-68
2023/06/09 05:56:30;;;;;;;0.40;0.40;;;16.50;99.90;;;;;;5073388;28;20272;-69
2023/06/09 05:59:03;;;;;;;0.40;0.40;;;16.40;99.90;;;;;;5055440;28;20200;-69
2023/06/09 06:01:30;;;;;;;0.40;0.40;;;16.00;99.90;;;;;;5072804;28;20212;-70
2023/06/09 06:03:56;;;;;;;0.40;0.40;;;16.10;99.90;;;;;;5072533;28;20217;-70
2023/06/09 06:06:21;;;;;;;0.35;0.35;;;16.40;99.90;;;;;;5073205;28;20177;-69
2023/06/09 06:08:47;;;;;;;0.40;0.40;;;16.50;99.60;;;;;;5073466;28;20242;-70
2023/06/09 06:11:13;;;;;;;0.90;0.73;;;16.60;99.90;;;;;;5055226;28;20279;-69
2023/06/09 06:13:38;;;;;;;0.30;0.30;;;16.50;99.90;;;;;;5054557;28;20205;-69
2023/06/09 06:16:04;;;;;;;0.30;0.30;;;17.00;99.90;;;;;;5073267;28;20192;-69
2023/06/09 06:18:30;;;;;;;0.82;0.52;;;17.20;98.80;;;;;;5054849;28;20200;-70
2023/06/09 06:20:56;;;;;;;0.30;0.30;;;17.80;99.40;;;;;;5073063;28;20220;-70
2023/06/09 06:23:22;;;;;;;0.90;0.73;;;18.30;97.10;;;;;;5054232;28;20885;-69
2023/06/09 06:25:47;;;;;;;0.30;0.30;;;18.30;95.50;;;;;;5055025;28;20757;-70
2023/06/09 06:28:14;;;;;;;0.30;0.30;;;18.30;96.00;;;;;;5073151;28;20228;-70
2023/06/09 06:30:40;;;;;;;0.20;0.20;;;18.10;94.60;;;;;;5072775;28;20573;-70
2023/06/09 06:33:06;;;;;;;0.30;0.30;;;18.00;94.50;;;;;;5054821;28;20283;-70
2023/06/09 06:35:32;;;;;;;0.30;0.30;;;17.90;95.00;;;;;;5054207;28;20644;-70
2023/06/09 06:37:58;;;;;;;0.40;0.40;;;17.50;94.40;;;;;;5054931;28;20207;-70
2023/06/09 06:40:24;;;;;;;0.30;0.30;;;17.40;95.60;;;;;;5072542;28;20197;-71
2023/06/09 06:42:51;;;;;;;0.50;0.40;;;17.40;95.70;;;;;;5054897;28;20223;-70
2023/06/09 06:45:17;;;;;;;0.30;0.30;;;17.70;95.00;;;;;;5054788;28;20201;-70
2023/06/09 06:47:45;;;;;;;0.40;0.40;;;18.10;93.50;;;;;;5054128;28;20233;-70
2023/06/09 06:50:12;;;;;;;0.50;0.50;;;18.30;94.40;;;;;;5072674;28;20648;-70
2023/06/09 06:52:38;;;;;;;0.40;0.40;;;18.60;93.80;;;;;;5071815;28;20203;-71
2023/06/09 06:55:07;;;;;;;0.28;0.28;;;18.30;92.50;;;;;;5054476;28;20224;-70
2023/06/09 06:57:36;;;;;;;0.40;0.40;;;18.50;92.20;;;;;;5072349;28;20188;-70
2023/06/09 07:00:14;;;;;;;0.30;0.30;;;18.50;93.60;;;;;;5072436;28;20201;-70
2023/06/09 07:02:43;;;;;;;0.30;0.30;;;18.40;92.30;;;;;;5071705;28;20224;-70
2023/06/09 07:05:09;;;;;;;0.30;0.30;;;18.30;92.70;;;;;;5054309;28;20192;-72
2023/06/09 07:07:34;;;;;;;0.70;0.43;;;18.30;92.40;;;;;;5053981;28;20740;-70
2023/06/09 07:10:01;;;;;;;0.20;0.20;;;18.90;92.50;;;;;;5072128;28;20219;-71
2023/06/09 07:12:27;;;;;;;0.20;0.20;;;18.90;91.90;;;;;;5053937;28;20211;-71
2023/06/09 07:14:53;;;;;;;0.20;0.20;;;19.20;90.00;;;;;;5053832;28;20193;-71
2023/06/09 07:17:18;;;;;;;0.30;0.30;;;19.20;91.00;;;;;;5053931;28;20694;-72
2023/06/09 07:19:44;;;;;;;0.30;0.30;;;19.10;91.50;;;;;;5054059;28;20246;-70
2023/06/09 07:22:10;;;;;;;0.47;0.40;;;19.10;91.80;;;;;;5071722;28;20196;-69
2023/06/09 07:24:36;;;;;;;0.20;0.20;;;19.00;90.70;;;;;;5071623;28;20204;-71
2023/06/09 07:27:01;;;;;;;0.35;0.35;;;19.00;91.50;;;;;;5054133;28;20197;-71
2023/06/09 07:29:27;;;;;;;0.28;0.28;;;18.80;91.10;;;;;;5053641;28;20197;-70
2023/06/09 07:31:53;;;;;;;0.30;0.30;;;18.60;89.80;;;;;;5053817;28;20185;-70
2023/06/09 07:34:19;;;;;;;0.30;0.30;;;18.60;92.00;;;;;;5052834;28;20193;-72
2023/06/09 07:36:50;;;;;;;0.40;0.40;;;19.20;91.00;;;;;;5070723;28;20703;-71
2023/06/09 07:39:17;;;;;;;0.40;0.40;;;19.40;89.60;;;;;;5071866;28;20645;-71
2023/06/09 07:41:43;;;;;;;0.30;0.30;;;19.00;91.10;;;;;;5071555;28;20193;-70
2023/06/09 07:44:09;;;;;;;1.42;0.82;;;19.10;90.60;;;;;;5053221;28;20197;-70
2023/06/09 07:46:35;;;;;;;0.30;0.30;;;18.70;90.30;;;;;;5071379;28;20192;-71
2023/06/09 07:49:01;;;;;;;0.22;0.22;;;19.00;90.60;;;;;;5071314;28;20243;-70
2023/06/09 07:51:29;;;;;;;0.40;0.40;;;19.30;89.40;;;;;;5066004;28;20426;-70
2023/06/09 07:53:55;;;;;;;0.20;0.20;;;19.40;90.10;;;;;;5071452;28;20648;-71
2023/06/09 07:56:21;;;;;;;0.30;0.30;;;20.00;91.50;;;;;;5071329;28;20272;-70
2023/06/09 07:58:46;;;;;;;0.30;0.30;;;20.40;91.10;;;;;;5071231;28;20633;-72
2023/06/09 08:01:12;;;;;;;0.28;0.28;;;20.20;84.20;;;;;;5071098;28;20193;-72
2023/06/09 08:03:38;;;;;;;0.20;0.20;;;20.60;87.80;;;;;;5070865;28;20762;-71
2023/06/09 08:06:04;;;;;;;0.30;0.30;;;21.00;84.00;;;;;;5071250;28;20208;-71
2023/06/09 08:08:31;;;;;;;0.30;0.30;;;20.70;85.30;;;;;;5070825;28;20197;-71
2023/06/09 08:10:58;;;;;;;0.75;0.35;;;20.80;84.10;;;;;;5071007;28;20232;-73
2023/06/09 08:13:24;;;;;;;0.43;0.43;;;20.60;83.10;;;;;;5071020;28;20203;-72
2023/06/09 08:15:50;;;;;;;0.40;0.40;;;20.80;84.80;;;;;;5071092;28;20690;-70
2023/06/09 08:18:16;;;;;;;0.30;0.30;;;20.50;84.00;;;;;;5070266;28;20205;-72
2023/06/09 08:20:42;;;;;;;0.40;0.40;;;20.70;82.80;;;;;;5070599;28;20189;-71
2023/06/09 08:23:07;;;;;;;0.30;0.30;;;21.00;83.70;;;;;;5070854;28;20733;-72
2023/06/09 08:25:35;;;;;;;0.75;0.50;;;21.20;84.10;;;;;;5071231;28;20211;-71
2023/06/09 08:28:00;;;;;;;0.30;0.30;;;20.70;85.30;;;;;;5071015;28;20188;-72
2023/06/09 08:30:27;;;;;;;0.20;0.20;;;20.80;85.40;;;;;;5052919;28;20191;-72
2023/06/09 08:32:52;;;;;;;0.30;0.30;;;20.90;81.80;;;;;;5070656;28;20185;-71
2023/06/09 08:35:18;;;;;;;0.25;0.25;;;20.80;83.90;;;;;;5052704;28;20577;-72
2023/06/09 08:37:44;;;;;;;0.40;0.40;;;20.20;83.30;;;;;;5051885;28;20445;-71
2023/06/09 08:40:10;;;;;;;0.30;0.30;;;20.20;84.10;;;;;;5070450;28;20571;-69
2023/06/09 08:42:38;;;;;;;0.20;0.20;;;20.40;84.60;;;;;;5052303;28;20410;-70
2023/06/09 08:45:05;;;;;;;0.30;0.30;;;20.40;85.90;;;;;;5052817;28;20250;-71
2023/06/09 08:47:34;;;;;;;0.95;0.40;;;21.10;81.00;;;;;;5055527;28;20562;-70
2023/06/09 08:50:02;;;;;;;0.20;0.20;;;21.80;78.30;;;;;;5074975;28;20200;-70
2023/06/09 08:52:29;;;;;;;0.20;0.20;;;22.40;80.90;;;;;;5056685;28;20260;-70
2023/06/09 08:54:58;;;;;;;0.20;0.20;;;21.90;79.60;;;;;;5056866;28;20859;-70
2023/06/09 08:57:24;;;;;;;0.38;0.38;;;21.70;80.30;;;;;;5074596;28;20189;-70
2023/06/09 08:59:50;;;;;;;0.20;0.20;;;21.60;81.50;;;;;;5074052;28;20653;-69
2023/06/09 09:02:17;;;;;;;0.25;0.25;;;21.60;79.10;;;;;;5074331;28;20303;-71
2023/06/09 09:04:44;;;;;;;0.20;0.20;;;21.80;81.50;;;;;;5056319;28;20197;-70
2023/06/09 09:07:13;;;;;;;0.30;0.30;;;22.00;80.80;;;;;;5074391;28;20543;-69
2023/06/09 09:09:40;;;;;;;0.20;0.20;;;22.30;79.30;;;;;;5055998;28;20236;-70
2023/06/09 09:12:12;;;;;;;0.30;0.30;;;22.20;79.30;;;;;;5056576;28;20250;-69
2023/06/09 09:14:43;;;;;;;0.22;0.22;;;21.70;82.40;;;;;;5055777;28;20201;-70
2023/06/09 09:17:13;;;;;;;0.38;0.38;;;21.80;80.50;;;;;;5056166;28;20284;-70
2023/06/09 09:19:45;;;;;;;0.35;0.35;;;21.80;80.20;;;;;;5074092;28;20208;-70
2023/06/09 09:22:11;;;;;;;1.02;0.68;;;22.00;77.10;;;;;;5073995;28;20189;-71
2023/06/09 09:24:40;;;;;;;0.20;0.20;;;22.20;78.10;;;;;;5074062;28;20643;-71
2023/06/09 09:27:19;;;;;;;0.20;0.20;;;22.20;79.00;;;;;;5056218;28;20197;-71
2023/06/09 09:29:46;;;;;;;0.20;0.20;;;22.30;79.80;;;;;;5074266;28;20275;-71
2023/06/09 09:32:12;;;;;;;0.28;0.28;;;22.40;75.80;;;;;;5074059;28;20193;-73
2023/06/09 09:34:44;;;;;;;0.25;0.25;;;22.30;76.00;;;;;;5055502;28;20208;-73
2023/06/09 09:37:17;;;;;;;0.40;0.40;;;22.60;78.00;;;;;;5073974;28;20218;-73
2023/06/09 09:39:50;;;;;;;0.20;0.20;;;22.70;76.10;;;;;;5073746;28;20280;-71
2023/06/09 09:42:17;;;;;;;0.30;0.30;;;22.50;78.10;;;;;;5073726;28;20189;-70
2023/06/09 09:44:49;;;;;;;0.20;0.20;;;22.30;77.60;;;;;;5055954;28;20224;-71
2023/06/09 09:47:19;;;;;;;0.20;0.20;;;22.40;76.40;;;;;;5055760;28;20254;-71
2023/06/09 09:49:54;;;;;;;0.57;0.50;;;23.20;74.60;;;;;;5073599;28;20590;-72
2023/06/09 09:52:28;;;;;;;0.17;0.17;;;23.20;74.20;;;;;;5055584;28;20196;-71
2023/06/09 09:55:04;;;;;;;0.60;0.60;;;22.60;77.60;;;;;;5073612;28;20292;-72
2023/06/09 09:57:32;;;;;;;0.20;0.20;;;23.20;72.20;;;;;;5054560;28;20196;-72
2023/06/09 10:00:00;;;;;;;0.40;0.40;;;24.00;76.00;;;;;;5073433;28;20201;-71
2023/06/09 10:02:30;;;;;;;0.20;0.20;;;23.70;69.50;;;;;;5072747;28;20562;-71
2023/06/09 10:05:00;;;;;;;0.20;0.20;;;23.20;75.00;;;;;;5073742;28;20189;-71
2023/06/09 10:07:29;;;;;;;0.20;0.20;;;23.40;73.70;;;;;;5072588;28;20340;-71
2023/06/09 10:09:56;;;;;;;0.40;0.28;;;23.60;72.80;;;;;;5073208;28;20193;-71
2023/06/09 10:12:22;;;;;;;0.35;0.30;;;23.60;73.10;;;;;;5055313;28;20197;-70
2023/06/09 10:14:48;;;;;;;0.30;0.30;;;23.60;73.00;;;;;;5073486;28;20530;-70
2023/06/09 10:17:18;;;;;;;0.32;0.32;;;23.50;71.60;;;;;;5073347;28;20195;-70
2023/06/09 10:19:44;;;;;;;0.35;0.35;;;24.10;73.20;;;;;;5073409;28;20611;-70
2023/06/09 10:22:11;;;;;;;0.10;0.10;;;23.90;72.50;;;;;;5054852;28;20193;-73
2023/06/09 10:24:38;;;;;;;0.52;0.30;;;23.90;70.40;;;;;;5054932;28;20201;-74
2023/06/09 10:27:06;;;;;;;0.55;0.55;;;23.70;70.60;;;;;;5073555;28;20689;-73
2023/06/09 10:29:33;;;;;;;0.25;0.25;;;23.80;70.90;;;;;;5072847;28;20238;-70
2023/06/09 10:31:59;;;;;;;0.20;0.20;;;23.90;73.10;;;;;;5072765;28;20216;-70
2023/06/09 10:34:27;;;;;;;0.30;0.30;;;24.20;71.50;;;;;;5035238;28;20202;-71
2023/06/09 10:36:54;;;;;;;0.40;0.38;;;24.40;71.10;;;;;;5035028;28;20202;-71
2023/06/09 10:39:23;;;;;;;0.30;0.30;;;23.90;71.50;;;;;;5034659;28;20626;-70
2023/06/09 10:42:21;;;;;;;0.28;0.25;;;23.80;72.60;;;;;;5072543;28;20207;-71
2023/06/09 10:45:13;;;;;;;0.65;0.40;;;24.00;69.30;;;;;;5054690;28;20212;-71
2023/06/09 10:47:46;;;;;;;0.17;0.17;;;24.70;70.00;;;;;;5072608;28;20338;-73
2023/06/09 10:50:30;;;;;;;0.32;0.30;;;24.70;69.80;;;;;;5072842;28;20195;-70
2023/06/09 10:52:57;;;;;;;0.20;0.20;;;25.10;67.80;;;;;;5072878;28;20201;-71
2023/06/09 10:55:27;;;;;;;0.10;0.10;;;25.00;66.70;;;;;;5072399;28;20197;-71
2023/06/09 10:57:54;;;;;;;0.22;0.20;;;24.90;70.40;;;;;;5072702;28;20226;-73
2023/06/09 11:00:21;;;;;;;0.10;0.10;;;25.60;69.30;;;;;;5053914;28;20794;-73
2023/06/09 11:02:52;;;;;;;0.10;0.10;;;26.30;64.90;;;;;;5053826;28;20225;-73
2023/06/09 11:05:19;;;;;;;0.38;0.38;;;25.70;66.00;;;;;;5072148;28;20204;-72
2023/06/09 11:08:02;;;;;;;0.40;0.38;;;25.60;65.90;;;;;;5072240;28;20573;-73
2023/06/09 11:10:28;;;;;;;0.10;0.10;;;25.70;68.50;;;;;;5053770;28;20238;-72
2023/06/09 11:12:55;;;;;;;0.28;0.28;;;26.30;69.00;;;;;;5072385;28;20191;-74
2023/06/09 11:15:22;;;;;;;0.20;0.20;;;26.20;63.90;;;;;;5071960;28;20535;-73
2023/06/09 11:17:52;;;;;;;0.20;0.20;;;26.40;66.90;;;;;;5054128;28;20193;-72
2023/06/09 11:20:23;;;;;;;0.28;0.28;;;26.60;63.70;;;;;;5053934;28;20206;-72
2023/06/09 11:22:49;;;;;;;0.10;0.10;;;26.60;64.80;;;;;;5091900;28;20220;-72
2023/06/09 11:25:15;;;;;;;0.13;0.13;;;26.20;64.30;;;;;;5091479;28;20249;-72
2023/06/09 11:27:42;;;;;;;0.13;0.13;;;26.20;64.30;;;;;;5086784;28;20687;-74
2023/06/09 11:30:09;;;;;;;0.28;0.28;;;25.70;65.50;;;;;;5071983;28;20290;-73
2023/06/09 11:32:44;;;;;;;0.10;0.10;;;25.10;64.40;;;;;;5071376;28;20197;-72
2023/06/09 11:35:30;;;;;;;0.20;0.20;;;24.60;64.30;;;;;;5072525;28;20196;-71
2023/06/09 11:38:00;;;;;;;0.50;0.50;;;25.00;66.10;;;;;;5054051;28;20597;-71
2023/06/09 11:40:31;;;;;;;0.20;0.20;;;25.30;66.70;;;;;;5072099;28;20200;-72
2023/06/09 11:42:58;;;;;;;0.20;0.20;;;25.50;64.90;;;;;;5071908;28;20537;-72
2023/06/09 11:45:30;;;;;;;0.32;0.30;;;24.90;62.80;;;;;;5053459;28;20495;-72
2023/06/09 11:47:59;;;;;;;0.10;0.10;;;25.30;65.70;;;;;;5071929;28;20197;-72
2023/06/09 11:50:26;;;;;;;0.28;0.20;;;25.40;66.30;;;;;;5053316;28;20712;-72
2023/06/09 11:53:11;;;;;;;0.10;0.10;;;25.60;66.40;;;;;;5071353;28;20221;-71
2023/06/09 11:55:37;;;;;;;0.10;0.10;;;26.10;60.20;;;;;;5071061;28;20279;-70
2023/06/09 11:58:04;;;;;;;0.20;0.20;;;26.30;61.80;;;;;;5090026;28;20603;-71
2023/06/09 12:00:32;;;;;;;0.22;0.17;;;25.70;64.60;;;;;;5073129;28;20246;-72
2023/06/09 12:02:58;;;;;;;0.22;0.20;;;25.90;65.50;;;;;;5073273;28;20235;-71
2023/06/09 12:05:28;;;;;;;0.22;0.22;;;26.60;63.10;;;;;;5091045;28;20191;-71
2023/06/09 12:07:55;;;;;;;0.43;0.28;;;27.20;63.20;;;;;;5073675;28;20202;-71
2023/06/09 12:10:29;;;;;;;0.10;0.10;;;26.10;61.10;;;;;;5091510;28;20600;-71
2023/06/09 12:12:59;;;;;;;0.17;0.17;;;26.00;61.50;;;;;;5091398;28;20275;-71
2023/06/09 12:15:27;;;;;;;0.20;0.20;;;26.50;61.60;;;;;;5091431;28;20265;-71
2023/06/09 12:17:56;;;;;;;0.52;0.20;;;26.60;63.10;;;;;;5091733;28;20195;-72
2023/06/09 12:20:26;;;;;;;0.32;0.30;;;26.20;60.30;;;;;;5072625;28;20239;-71
2023/06/09 12:22:56;;;;;;;0.20;0.20;;;26.30;60.60;;;;;;5090862;28;20195;-71
2023/06/09 12:25:29;;;;;;;2.28;0.45;;;25.90;60.20;;;;;;5073393;28;20204;-71
2023/06/09 12:28:16;;;;;;;0.10;0.10;;;26.50;62.20;;;;;;5070990;28;20192;-71
2023/06/09 12:30:53;;;;;;;0.15;0.15;;;26.80;60.20;;;;;;5070397;28;20255;-72
2023/06/09 12:33:20;;;;;;;0.20;0.20;;;27.10;59.70;;;;;;5052735;28;20282;-71
2023/06/09 12:35:51;;;;;;;0.20;0.20;;;27.00;60.10;;;;;;5052707;28;20192;-71
2023/06/09 12:38:18;;;;;;;0.10;0.10;;;26.70;58.40;;;;;;5071196;28;20235;-71
2023/06/09 12:40:45;;;;;;;3.60;0.88;;;26.40;59.30;;;;;;5052437;28;20205;-73
2023/06/09 12:43:11;;;;;;;0.20;0.20;;;26.60;59.60;;;;;;5048882;28;20287;-73
2023/06/09 12:45:37;;;;;;;0.10;0.10;;;26.40;59.60;;;;;;5049501;28;20629;-72
2023/06/09 12:48:07;;;;;;;0.40;0.40;;;26.60;59.50;;;;;;5048940;28;20216;-71
2023/06/09 12:50:33;;;;;;;0.10;0.10;;;26.90;57.80;;;;;;5050624;28;20244;-71
2023/06/09 12:52:59;;;;;;;0.40;0.22;;;26.60;59.20;;;;;;5032447;28;20181;-73
2023/06/09 12:55:25;;;;;;;0.10;0.10;;;26.70;59.70;;;;;;5050667;28;20200;-71